Time;durP1;ratioP1;P1;durP2;ratioP2;P2;SDS_P1;SDS_P2;PMS_P1;PMS_P2;Temp;Humidity;BMP_temperature;BMP_pressure;BME280_temperature;BME280_humidity;BME280_pressure;Samples;Min_cycle;Max_cycle;Signal;HPM_P1;HPM_P2
2022/12/11 00:01:19;;;;;;;;;;;8.40;94.60;;;;;;5089992;28;19945;-88
2022/12/11 00:03:45;;;;;;;;;;;8.40;94.70;;;;;;5096345;28;19942;-89
2022/12/11 00:06:12;;;;;;;;;;;8.40;94.70;;;;;;5096303;28;20016;-89
2022/12/11 00:08:38;;;;;;;;;;;8.40;94.80;;;;;;5096570;28;19938;-89
2022/12/11 00:11:04;;;;;;;;;;;8.40;94.80;;;;;;5083960;28;20001;-89
2022/12/11 00:13:30;;;;;;;;;;;8.40;94.80;;;;;;5075886;28;20015;-89
2022/12/11 00:15:57;;;;;;;;;;;8.40;94.80;;;;;;5075734;28;19969;-89
2022/12/11 00:18:22;;;;;;;;;;;8.40;94.80;;;;;;5075791;28;19936;-89
2022/12/11 00:20:48;;;;;;;;;;;8.40;94.80;;;;;;5085045;28;20356;-89
2022/12/11 00:23:13;;;;;;;;;;;8.40;94.70;;;;;;5095951;28;19941;-89
2022/12/11 00:25:40;;;;;;;;;;;8.40;94.80;;;;;;5095929;28;19948;-89
2022/12/11 00:28:05;;;;;;;;;;;8.40;94.80;;;;;;5095848;28;19941;-89
2022/12/11 00:30:31;;;;;;;;;;;8.40;94.80;;;;;;5088679;28;19943;-88
2022/12/11 00:32:56;;;;;;;;;;;8.40;94.80;;;;;;5075540;28;20330;-88
2022/12/11 00:35:22;;;;;;;;;;;8.40;94.80;;;;;;5075650;28;20366;-89
2022/12/11 00:37:47;;;;;;;;;;;8.30;94.80;;;;;;5075400;28;20548;-89
2022/12/11 00:40:13;;;;;;;;;;;8.40;94.80;;;;;;5079158;28;19941;-88
2022/12/11 00:42:38;;;;;;;;;;;8.30;94.80;;;;;;5095600;28;19949;-89
2022/12/11 00:45:04;;;;;;;;;;;8.40;94.80;;;;;;5095560;28;19941;-89
2022/12/11 00:47:29;;;;;;;;;;;8.40;94.80;;;;;;5095435;28;19948;-89
2022/12/11 00:49:55;;;;;;;;;;;8.30;94.70;;;;;;5093839;28;19938;-89
2022/12/11 00:52:20;;;;;;;;;;;8.30;94.70;;;;;;5075112;28;19982;-89
2022/12/11 00:54:46;;;;;;;;;;;8.30;94.70;;;;;;5074971;28;20409;-89
2022/12/11 00:57:11;;;;;;;;;;;8.30;94.80;;;;;;5075034;28;19962;-89
2022/12/11 00:59:37;;;;;;;;;;;8.30;94.80;;;;;;5075016;28;20403;-89
2022/12/11 01:02:02;;;;;;;;;;;8.20;94.90;;;;;;5093625;28;19955;-89
2022/12/11 01:04:28;;;;;;;;;;;8.30;94.90;;;;;;5095174;28;19943;-89
2022/12/11 01:06:53;;;;;;;;;;;8.30;94.90;;;;;;5095065;28;19937;-88
2022/12/11 01:12:03;;;;;;;;;;;8.30;94.60;;;;;;5076209;28;20471;-89
2022/12/11 01:14:29;;;;;;;;;;;8.30;94.50;;;;;;5074673;28;19997;-89
2022/12/11 01:16:54;;;;;;;;;;;8.30;94.50;;;;;;5074633;28;19941;-89
2022/12/11 01:19:20;;;;;;;;;;;8.20;94.40;;;;;;5074634;28;19942;-89
2022/12/11 01:21:45;;;;;;;;;;;8.30;94.30;;;;;;5090458;28;20448;-89
2022/12/11 01:24:11;;;;;;;;;;;8.30;94.30;;;;;;5094426;28;19944;-89
2022/12/11 01:26:36;;;;;;;;;;;8.20;94.40;;;;;;5094175;28;19941;-89
2022/12/11 01:29:02;;;;;;;;;;;8.20;94.60;;;;;;5094682;28;19940;-88
2022/12/11 01:31:27;;;;;;;;;;;8.20;94.60;;;;;;5080748;28;19999;-88
2022/12/11 01:33:54;;;;;;;;;;;8.20;94.70;;;;;;5074226;28;19936;-89
2022/12/11 01:36:20;;;;;;;;;;;8.10;94.80;;;;;;5074259;28;20034;-89
2022/12/11 01:38:46;;;;;;;;;;;8.10;95.00;;;;;;5056363;28;19981;-88
2022/12/11 01:41:12;;;;;;;;;;;8.10;95.10;;;;;;5084977;28;19950;-88
2022/12/11 01:43:56;;;;;;;;;;;8.10;95.20;;;;;;5094364;28;19995;-89
2022/12/11 01:46:22;;;;;;;;;;;8.00;95.20;;;;;;5094289;28;19992;-89
2022/12/11 01:48:48;;;;;;;;;;;8.10;95.30;;;;;;5094298;28;19988;-89
2022/12/11 01:51:13;;;;;;;;;;;8.00;95.40;;;;;;5064646;28;19947;-89
2022/12/11 01:53:44;;;;;;;;;;;8.10;95.50;;;;;;5073785;28;19954;-89
2022/12/11 01:56:10;;;;;;;;;;;8.10;95.60;;;;;;5073912;28;19969;-89
2022/12/11 01:58:45;;;;;;;;;;;8.10;95.60;;;;;;5073896;28;19938;-89
2022/12/11 02:01:13;;;;;;;;;;;8.10;95.70;;;;;;5084663;28;19951;-89
2022/12/11 02:03:39;;;;;;;;;;;8.10;95.70;;;;;;5094028;28;19960;-89
2022/12/11 02:06:04;;;;;;;;;;;8.20;95.60;;;;;;5093995;28;20385;-89
2022/12/11 02:08:30;;;;;;;;;;;8.30;95.60;;;;;;5094238;28;19939;-89
2022/12/11 02:10:55;;;;;;;;;;;8.30;95.40;;;;;;5085168;28;20361;-88
2022/12/11 02:13:33;;;;;;;;;;;8.30;95.20;;;;;;5073806;28;20298;-89
2022/12/11 02:16:09;;;;;;;;;;;8.30;95.20;;;;;;5073512;28;19958;-89
2022/12/11 02:18:49;;;;;;;;;;;8.30;95.20;;;;;;5073484;28;19936;-89
2022/12/11 02:21:25;;;;;;;;;;;8.20;95.30;;;;;;5082096;22;20025;-89
2022/12/11 02:24:17;;;;;;;;;;;8.20;95.40;;;;;;5073393;28;19945;-89
2022/12/11 02:26:48;;;;;;;;;;;8.20;95.40;;;;;;5070289;28;19981;-89
2022/12/11 02:29:19;;;;;;;;;;;8.20;95.40;;;;;;5073387;28;19974;-88
2022/12/11 02:31:49;;;;;;;;;;;8.30;95.40;;;;;;5073059;28;20464;-89
2022/12/11 02:34:20;;;;;;;;;;;8.30;95.30;;;;;;5073198;28;20317;-88
2022/12/11 02:36:48;;;;;;;;;;;8.30;95.20;;;;;;5073267;28;20408;-89
2022/12/11 02:39:14;;;;;;;;;;;8.20;95.40;;;;;;5072379;28;19947;-89
2022/12/11 02:41:42;;;;;;;;;;;8.20;95.60;;;;;;5072762;28;20418;-89
2022/12/11 02:44:09;;;;;;;;;;;8.20;95.60;;;;;;5054973;28;19948;-89
2022/12/11 02:46:35;;;;;;;;;;;8.30;95.60;;;;;;5073083;28;20005;-89
2022/12/11 02:49:02;;;;;;;;;;;8.30;95.50;;;;;;5055265;28;19952;-89
2022/12/11 02:51:32;;;;;;;;;;;8.20;95.50;;;;;;5054828;28;19946;-89
2022/12/11 02:53:58;;;;;;;;;;;8.30;95.60;;;;;;5072860;28;19955;-89
2022/12/11 02:56:33;;;;;;;;;;;8.30;95.50;;;;;;5073040;28;19983;-89
2022/12/11 02:59:10;;;;;;;;;;;8.20;95.50;;;;;;5073073;28;20007;-89
2022/12/11 03:01:35;;;;;;;;;;;8.20;95.60;;;;;;5072702;28;19946;-89
2022/12/11 03:04:01;;;;;;;;;;;8.20;95.60;;;;;;5073012;28;19939;-89
2022/12/11 03:06:30;;;;;;;;;;;8.10;95.80;;;;;;5073008;28;19938;-89
2022/12/11 03:08:56;;;;;;;;;;;8.20;95.90;;;;;;5072957;28;19949;-89
2022/12/11 03:11:21;;;;;;;;;;;8.30;95.80;;;;;;5072694;28;19941;-89
2022/12/11 03:13:47;;;;;;;;;;;8.30;95.70;;;;;;5072862;28;19938;-89
2022/12/11 03:16:12;;;;;;;;;;;8.20;95.70;;;;;;5072908;28;19937;-89
2022/12/11 03:18:38;;;;;;;;;;;8.20;95.60;;;;;;5072856;28;19938;-89
2022/12/11 03:21:06;;;;;;;;;;;8.20;95.60;;;;;;5072365;28;19977;-89
2022/12/11 03:23:56;;;;;;;;;;;8.20;95.70;;;;;;5072812;28;20034;-89
2022/12/11 03:26:22;;;;;;;;;;;8.20;95.80;;;;;;5072811;28;19991;-89
2022/12/11 03:28:59;;;;;;;;;;;8.20;95.90;;;;;;5072762;28;19938;-89
2022/12/11 03:31:34;;;;;;;;;;;8.30;95.80;;;;;;5054396;28;19950;-89
2022/12/11 03:34:02;;;;;;;;;;;8.40;95.70;;;;;;5072673;28;19972;-89
2022/12/11 03:36:33;;;;;;;;;;;8.40;95.60;;;;;;5072672;28;19949;-89
2022/12/11 03:39:00;;;;;;;;;;;8.40;95.40;;;;;;5054795;28;19935;-90
2022/12/11 03:41:27;;;;;;;;;;;8.40;95.30;;;;;;5072410;28;19947;-89
2022/12/11 03:43:55;;;;;;;;;;;8.40;95.30;;;;;;5072613;28;19967;-89
2022/12/11 03:46:22;;;;;;;;;;;8.40;95.30;;;;;;5072809;28;19960;-89
2022/12/11 03:48:48;;;;;;;;;;;8.40;95.30;;;;;;5072562;28;19938;-88
2022/12/11 03:51:15;;;;;;;;;;;8.40;95.40;;;;;;5075139;28;19942;-89
2022/12/11 03:53:41;;;;;;;;;;;8.40;95.40;;;;;;5076063;28;19970;-89
2022/12/11 03:56:09;;;;;;;;;;;8.40;95.40;;;;;;5076174;28;20062;-89
2022/12/11 03:58:34;;;;;;;;;;;8.40;95.40;;;;;;5076171;28;20000;-89
2022/12/11 04:01:00;;;;;;;;;;;8.40;95.40;;;;;;5075936;28;20480;-89
2022/12/11 04:03:25;;;;;;;;;;;8.40;95.30;;;;;;5076074;28;19969;-89
2022/12/11 04:05:53;;;;;;;;;;;8.40;95.10;;;;;;5076051;28;20027;-89
2022/12/11 04:08:22;;;;;;;;;;;8.30;94.80;;;;;;5075990;28;19939;-89
2022/12/11 04:11:33;;;;;;;;;;;8.20;94.30;;;;;;5075718;28;20041;-89
2022/12/11 04:13:33;;;;;;;;;;;8.10;93.50;;;;;;5075758;28;19991;-88
2022/12/11 04:15:59;;;;;;;;;;;8.00;92.90;;;;;;5075790;28;19957;-89
2022/12/11 04:26:37;;;;;;;;;;;7.80;92.30;;;;;;5075664;28;20366;-89
2022/12/11 04:29:02;;;;;;;;;;;7.80;92.50;;;;;;5075612;28;20025;-88
2022/12/11 04:31:28;;;;;;;;;;;7.70;92.60;;;;;;5075349;28;19954;-89
2022/12/11 04:33:54;;;;;;;;;;;7.70;92.70;;;;;;5057516;28;20289;-89
2022/12/11 04:36:19;;;;;;;;;;;7.70;92.80;;;;;;5075487;28;19947;-89
2022/12/11 04:38:45;;;;;;;;;;;7.60;93.00;;;;;;5075453;28;20415;-89
2022/12/11 04:41:12;;;;;;;;;;;7.50;93.30;;;;;;5075136;28;19962;-89
2022/12/11 04:43:37;;;;;;;;;;;7.50;93.40;;;;;;5075380;28;19993;-89
2022/12/11 04:46:06;;;;;;;;;;;7.50;93.30;;;;;;5075311;28;20314;-88
2022/12/11 04:48:32;;;;;;;;;;;7.50;92.90;;;;;;5075216;28;19938;-89
2022/12/11 04:50:57;;;;;;;;;;;7.50;92.40;;;;;;5074997;28;19951;-89
2022/12/11 04:53:23;;;;;;;;;;;7.40;92.30;;;;;;5075239;28;20454;-89
2022/12/11 04:55:49;;;;;;;;;;;7.40;91.90;;;;;;5075063;28;20493;-89
2022/12/11 04:58:14;;;;;;;;;;;7.30;91.40;;;;;;5075086;28;19984;-89
2022/12/11 05:00:40;;;;;;;;;;;7.20;91.40;;;;;;5074578;28;20453;-89
2022/12/11 05:03:06;;;;;;;;;;;7.20;91.20;;;;;;5074323;28;19942;-89
2022/12/11 05:05:31;;;;;;;;;;;7.10;91.30;;;;;;5074888;28;20417;-88
2022/12/11 05:07:57;;;;;;;;;;;7.00;91.30;;;;;;5074910;28;20399;-89
2022/12/11 05:10:22;;;;;;;;;;;6.90;90.60;;;;;;5074589;28;19947;-89
2022/12/11 05:12:48;;;;;;;;;;;6.90;91.20;;;;;;5074788;28;19944;-89
2022/12/11 05:15:13;;;;;;;;;;;6.80;91.20;;;;;;5074667;28;19958;-89
2022/12/11 05:17:39;;;;;;;;;;;6.80;91.20;;;;;;5074682;28;19943;-90
2022/12/11 05:20:05;;;;;;;;;;;6.70;91.30;;;;;;5074630;28;19941;-89
2022/12/11 05:22:30;;;;;;;;;;;6.70;91.20;;;;;;5074144;28;19980;-88
2022/12/11 05:24:56;;;;;;;;;;;6.70;91.40;;;;;;5074546;28;19937;-89
2022/12/11 05:27:22;;;;;;;;;;;6.70;91.40;;;;;;5074402;28;20345;-89
2022/12/11 05:29:47;;;;;;;;;;;6.70;92.10;;;;;;5073854;28;19944;-89
2022/12/11 05:32:13;;;;;;;;;;;6.70;92.00;;;;;;5056360;28;20375;-89
2022/12/11 05:34:38;;;;;;;;;;;6.70;92.00;;;;;;5074289;28;19963;-89
2022/12/11 05:37:04;;;;;;;;;;;6.80;91.90;;;;;;5074050;28;20419;-89
2022/12/11 05:39:29;;;;;;;;;;;6.70;91.70;;;;;;5074231;28;19938;-89
2022/12/11 05:41:55;;;;;;;;;;;6.80;91.60;;;;;;5074225;28;20414;-89
2022/12/11 05:44:20;;;;;;;;;;;6.70;92.00;;;;;;5074400;28;19946;-89
2022/12/11 05:46:46;;;;;;;;;;;6.80;91.80;;;;;;5073859;28;20028;-88
2022/12/11 05:49:12;;;;;;;;;;;6.70;91.40;;;;;;5073869;28;20011;-89
2022/12/11 05:51:38;;;;;;;;;;;6.70;91.10;;;;;;5074018;28;19942;-89
2022/12/11 05:54:04;;;;;;;;;;;6.70;90.80;;;;;;5073699;28;19959;-88
2022/12/11 05:56:31;;;;;;;;;;;6.70;91.10;;;;;;5074062;28;20449;-88
2022/12/11 05:58:57;;;;;;;;;;;6.60;91.30;;;;;;5073574;28;20038;-89
2022/12/11 06:01:23;;;;;;;;;;;6.60;91.90;;;;;;5073781;28;20037;-89
2022/12/11 06:03:48;;;;;;;;;;;6.60;92.80;;;;;;5073772;28;20024;-89
2022/12/11 06:06:14;;;;;;;;;;;6.60;92.80;;;;;;5073718;28;20030;-89
2022/12/11 06:08:39;;;;;;;;;;;6.60;92.80;;;;;;5073429;28;19947;-89
2022/12/11 06:11:05;;;;;;;;;;;6.60;92.40;;;;;;5073642;28;19947;-89
2022/12/11 06:13:31;;;;;;;;;;;6.40;91.90;;;;;;5073497;28;20031;-88
2022/12/11 06:16:04;;;;;;;;;;;6.40;91.20;;;;;;5073499;28;19998;-89
2022/12/11 06:18:29;;;;;;;;;;;6.30;91.00;;;;;;5073286;28;20099;-88
2022/12/11 06:20:55;;;;;;;;;;;6.30;91.10;;;;;;5073240;28;20587;-89
2022/12/11 06:23:21;;;;;;;;;;;6.30;91.10;;;;;;5073705;28;19950;-89
2022/12/11 06:25:46;;;;;;;;;;;6.20;91.50;;;;;;5073437;28;19940;-89
2022/12/11 06:28:12;;;;;;;;;;;6.20;91.60;;;;;;5073134;28;20398;-89
2022/12/11 06:30:37;;;;;;;;;;;6.20;91.50;;;;;;5073311;28;20413;-88
2022/12/11 06:33:03;;;;;;;;;;;6.20;91.40;;;;;;5073349;28;19946;-88
2022/12/11 06:35:29;;;;;;;;;;;6.10;91.30;;;;;;5073217;28;20051;-88
2022/12/11 06:37:54;;;;;;;;;;;6.10;91.40;;;;;;5073035;28;19945;-88
2022/12/11 06:40:20;;;;;;;;;;;6.10;91.40;;;;;;5073231;28;19938;-89
2022/12/11 06:42:45;;;;;;;;;;;6.10;91.30;;;;;;5072452;28;19942;-89
2022/12/11 06:45:11;;;;;;;;;;;6.10;91.30;;;;;;5072924;28;20011;-88
2022/12/11 06:47:36;;;;;;;;;;;6.00;91.40;;;;;;5073157;28;19939;-88
2022/12/11 06:50:02;;;;;;;;;;;6.00;91.50;;;;;;5073092;28;20405;-89
2022/12/11 06:52:28;;;;;;;;;;;6.00;91.50;;;;;;5072960;28;19965;-88
2022/12/11 06:54:54;;;;;;;;;;;6.00;91.60;;;;;;5072910;28;19966;-89
2022/12/11 06:57:19;;;;;;;;;;;6.00;91.60;;;;;;5073062;28;19981;-89
2022/12/11 06:59:45;;;;;;;;;;;6.00;91.60;;;;;;5073001;28;20285;-88
2022/12/11 07:02:12;;;;;;;;;;;6.00;91.80;;;;;;5073028;28;19996;-88
2022/12/11 07:04:37;;;;;;;;;;;5.90;91.90;;;;;;5072764;28;19988;-88
2022/12/11 07:07:03;;;;;;;;;;;6.00;91.90;;;;;;5072952;28;19974;-88
2022/12/11 07:09:28;;;;;;;;;;;6.00;91.90;;;;;;5055001;28;19953;-88
2022/12/11 07:11:54;;;;;;;;;;;6.00;92.10;;;;;;5072903;28;20010;-89
2022/12/11 07:14:19;;;;;;;;;;;6.00;92.20;;;;;;5072554;28;19966;-89
2022/12/11 07:16:45;;;;;;;;;;;6.00;92.20;;;;;;5072820;28;20033;-88
2022/12/11 07:19:10;;;;;;;;;;;6.00;92.00;;;;;;5072828;28;19941;-89
2022/12/11 07:21:36;;;;;;;;;;;6.00;92.00;;;;;;5072662;28;19978;-88
2022/12/11 07:24:02;;;;;;;;;;;6.00;92.10;;;;;;5072535;28;20028;-89
2022/12/11 07:26:27;;;;;;;;;;;6.00;92.10;;;;;;5076223;28;19955;-89
2022/12/11 07:28:55;;;;;;;;;;;6.00;92.50;;;;;;5076728;28;19945;-89
2022/12/11 07:31:22;;;;;;;;;;;6.10;92.30;;;;;;5076680;28;20437;-89
2022/12/11 07:33:51;;;;;;;;;;;6.10;92.20;;;;;;5076664;28;19943;-89
2022/12/11 07:36:17;;;;;;;;;;;6.10;92.10;;;;;;5076292;28;19966;-89
2022/12/11 07:38:42;;;;;;;;;;;6.20;91.90;;;;;;5076562;28;19944;-89
2022/12/11 07:41:11;;;;;;;;;;;6.20;91.80;;;;;;5076494;28;20001;-88
2022/12/11 07:43:36;;;;;;;;;;;6.20;91.70;;;;;;5076447;28;19937;-88
2022/12/11 07:46:03;;;;;;;;;;;6.20;91.50;;;;;;5076088;28;19952;-89
2022/12/11 07:48:29;;;;;;;;;;;6.20;91.20;;;;;;5076355;28;19934;-88
2022/12/11 07:50:54;;;;;;;;;;;6.20;91.20;;;;;;5076291;28;19960;-89
2022/12/11 07:53:20;;;;;;;;;;;6.20;91.20;;;;;;5076134;28;19987;-89
2022/12/11 07:55:45;;;;;;;;;;;6.20;91.20;;;;;;5075883;28;20562;-88
2022/12/11 07:58:11;;;;;;;;;;;6.20;91.30;;;;;;5076236;28;19950;-89
2022/12/11 08:00:36;;;;;;;;;;;6.30;91.20;;;;;;5076163;28;19983;-89
2022/12/11 08:03:02;;;;;;;;;;;6.20;91.30;;;;;;5076099;28;19971;-89
2022/12/11 08:05:27;;;;;;;;;;;6.20;91.30;;;;;;5075796;28;19951;-89
2022/12/11 08:07:53;;;;;;;;;;;6.20;91.20;;;;;;5076008;28;19944;-88
2022/12/11 08:10:18;;;;;;;;;;;6.20;90.90;;;;;;5075974;28;20082;-89
2022/12/11 08:12:44;;;;;;;;;;;6.20;91.00;;;;;;5075921;28;20393;-89
2022/12/11 08:15:10;;;;;;;;;;;6.20;91.20;;;;;;5075590;28;19968;-88
2022/12/11 08:17:35;;;;;;;;;;;6.20;91.30;;;;;;5075856;28;19947;-88
2022/12/11 08:20:01;;;;;;;;;;;6.20;91.30;;;;;;5075825;28;19946;-88
2022/12/11 08:22:26;;;;;;;;;;;6.20;91.30;;;;;;5075500;28;20436;-89
2022/12/11 08:24:52;;;;;;;;;;;6.10;91.20;;;;;;5057466;28;19951;-89
2022/12/11 08:27:17;;;;;;;;;;;6.20;91.10;;;;;;5075391;28;19976;-89
2022/12/11 08:29:43;;;;;;;;;;;6.20;91.00;;;;;;5075657;28;20405;-89
2022/12/11 08:32:08;;;;;;;;;;;6.20;90.90;;;;;;5075575;28;20431;-89
2022/12/11 08:34:34;;;;;;;;;;;6.20;90.70;;;;;;5075199;28;20418;-89
2022/12/11 08:37:00;;;;;;;;;;;6.20;90.80;;;;;;5074228;28;20408;-89
2022/12/11 08:39:25;;;;;;;;;;;6.20;91.10;;;;;;5075488;28;19942;-89
2022/12/11 08:41:51;;;;;;;;;;;6.20;90.90;;;;;;5075398;28;19943;-89
2022/12/11 08:44:16;;;;;;;;;;;6.20;91.20;;;;;;5075127;28;20389;-89
2022/12/11 08:46:42;;;;;;;;;;;6.20;90.80;;;;;;5075358;28;20445;-89
2022/12/11 08:49:08;;;;;;;;;;;6.20;90.60;;;;;;5075322;28;20388;-89
2022/12/11 08:51:34;;;;;;;;;;;6.20;90.40;;;;;;5075201;28;19949;-89
2022/12/11 08:54:00;;;;;;;;;;;6.20;90.20;;;;;;5074939;28;20114;-88
2022/12/11 08:56:26;;;;;;;;;;;6.20;89.90;;;;;;5074679;28;20404;-89
2022/12/11 08:58:52;;;;;;;;;;;6.30;90.00;;;;;;5075022;28;20033;-88
2022/12/11 09:01:22;;;;;;;;;;;6.40;89.80;;;;;;5075080;28;20363;-89
2022/12/11 09:03:48;;;;;;;;;;;6.40;89.50;;;;;;5075000;28;19945;-88
2022/12/11 09:06:15;;;;;;;;;;;6.40;88.90;;;;;;5074555;28;19946;-89
2022/12/11 09:08:41;;;;;;;;;;;6.40;88.80;;;;;;5074767;28;19935;-89
2022/12/11 09:11:12;;;;;;;;;;;6.40;88.90;;;;;;5074825;28;20304;-89
2022/12/11 09:13:39;;;;;;;;;;;6.40;89.40;;;;;;5074805;28;20022;-89
2022/12/11 09:16:06;;;;;;;;;;;6.30;89.90;;;;;;5074374;28;20007;-88
2022/12/11 09:18:31;;;;;;;;;;;6.40;90.20;;;;;;5074693;28;19945;-89
2022/12/11 09:20:58;;;;;;;;;;;6.40;90.10;;;;;;5056827;28;20439;-88
2022/12/11 09:23:24;;;;;;;;;;;6.40;90.00;;;;;;5074899;28;19979;-89
2022/12/11 09:25:49;;;;;;;;;;;6.40;89.90;;;;;;5074272;28;20310;-88
2022/12/11 09:28:15;;;;;;;;;;;6.40;89.40;;;;;;5074429;28;20291;-89
2022/12/11 09:30:40;;;;;;;;;;;6.40;89.50;;;;;;5074456;28;19940;-89
2022/12/11 09:33:06;;;;;;;;;;;6.40;89.60;;;;;;5074421;28;19989;-89
2022/12/11 09:35:31;;;;;;;;;;;6.40;89.70;;;;;;5073804;28;19968;-89
2022/12/11 09:37:57;;;;;;;;;;;6.50;89.60;;;;;;5074087;28;19958;-89
2022/12/11 09:40:22;;;;;;;;;;;6.40;89.60;;;;;;5074237;28;19938;-89
2022/12/11 09:43:02;;;;;;;;;;;6.50;89.70;;;;;;5074253;28;19939;-89
2022/12/11 09:45:27;;;;;;;;;;;6.40;89.40;;;;;;5073839;28;20443;-89
2022/12/11 09:47:54;;;;;;;;;;;6.50;89.40;;;;;;5073671;28;19978;-89
2022/12/11 09:50:24;;;;;;;;;;;6.50;89.30;;;;;;5074117;28;20402;-89
2022/12/11 09:52:50;;;;;;;;;;;6.40;89.50;;;;;;5073954;28;20012;-89
2022/12/11 09:55:18;;;;;;;;;;;6.50;89.60;;;;;;5073623;28;20447;-89
2022/12/11 09:57:53;;;;;;;;;;;6.50;89.50;;;;;;5073921;28;19998;-89
2022/12/11 10:00:18;;;;;;;;;;;6.50;89.20;;;;;;5073905;28;20042;-89
2022/12/11 10:03:01;;;;;;;;;;;6.60;89.40;;;;;;5073822;28;20437;-89
2022/12/11 10:05:27;;;;;;;;;;;6.70;89.10;;;;;;5073479;28;19940;-89
2022/12/11 10:08:02;;;;;;;;;;;6.70;89.20;;;;;;5073746;28;20359;-89
2022/12/11 10:10:30;;;;;;;;;;;6.80;89.00;;;;;;5073738;28;19941;-89
2022/12/11 10:12:58;;;;;;;;;;;6.80;89.00;;;;;;5073649;28;19949;-89
2022/12/11 10:15:30;;;;;;;;;;;6.90;88.50;;;;;;5072548;28;19959;-89
2022/12/11 10:17:57;;;;;;;;;;;6.90;88.80;;;;;;5073556;28;19988;-89
2022/12/11 10:20:35;;;;;;;;;;;7.10;88.50;;;;;;5082324;22;19939;-89
2022/12/11 10:23:02;;;;;;;;;;;7.10;88.80;;;;;;5052178;28;19977;-89
2022/12/11 10:25:43;;;;;;;;;;;7.10;88.30;;;;;;5061770;28;20323;-89
2022/12/11 10:28:13;;;;;;;;;;;7.20;87.90;;;;;;5055362;28;20268;-89
2022/12/11 10:30:41;;;;;;;;;;;7.10;88.00;;;;;;5073414;28;19974;-89
2022/12/11 10:33:10;;;;;;;;;;;7.00;87.20;;;;;;5073392;28;19974;-89
2022/12/11 10:35:40;;;;;;;;;;;7.00;87.60;;;;;;5063612;28;19965;-89
2022/12/11 10:38:27;;;;;;;;;;;6.90;87.40;;;;;;5053300;28;19948;-89
2022/12/11 10:41:10;;;;;;;;;;;6.90;87.10;;;;;;5035288;28;19952;-89
2022/12/11 10:43:41;;;;;;;;;;;6.70;86.70;;;;;;5053198;28;19939;-89
2022/12/11 10:46:14;;;;;;;;;;;6.60;87.20;;;;;;5066320;28;20321;-89
2022/12/11 10:49:13;;;;;;;;;;;6.40;87.60;;;;;;5073212;28;19939;-89
2022/12/11 10:51:38;;;;;;;;;;;6.40;88.20;;;;;;5050125;28;19952;-89
2022/12/11 10:54:15;;;;;;;;;;;6.40;87.90;;;;;;5073135;28;19959;-89
2022/12/11 10:56:44;;;;;;;;;;;6.30;88.20;;;;;;5054905;28;20450;-88
2022/12/11 10:59:15;;;;;;;;;;;6.20;88.40;;;;;;5052303;28;20462;-89
2022/12/11 11:01:45;;;;;;;;;;;6.10;88.60;;;;;;5053245;28;19962;-89
2022/12/11 11:04:17;;;;;;;;;;;6.10;88.70;;;;;;5052918;28;19947;-89
2022/12/11 11:06:43;;;;;;;;;;;6.00;89.00;;;;;;5035080;28;19971;-88
2022/12/11 11:09:29;;;;;;;;;;;6.00;88.90;;;;;;5052878;28;20414;-89
2022/12/11 11:11:54;;;;;;;;;;;6.00;88.60;;;;;;5054892;28;19942;-89
2022/12/11 11:14:21;;;;;;;;;;;5.90;87.90;;;;;;5072855;28;20392;-89
2022/12/11 11:16:48;;;;;;;;;;;5.90;88.00;;;;;;5073012;28;19994;-89
2022/12/11 11:19:22;;;;;;;;;;;5.90;88.50;;;;;;5072834;28;19936;-89
2022/12/11 11:21:50;;;;;;;;;;;5.90;89.00;;;;;;5053516;28;20072;-89
2022/12/11 11:24:23;;;;;;;;;;;5.90;89.20;;;;;;5052794;28;19946;-89
2022/12/11 11:26:49;;;;;;;;;;;5.90;88.60;;;;;;5052785;28;20055;-88
2022/12/11 11:29:44;;;;;;;;;;;5.90;88.10;;;;;;5052761;28;19936;-89
2022/12/11 11:32:24;;;;;;;;;;;5.80;88.70;;;;;;5047421;28;19991;-89
2022/12/11 11:34:49;;;;;;;;;;;5.80;88.60;;;;;;5072676;28;20030;-89
2022/12/11 11:37:29;;;;;;;;;;;5.80;88.60;;;;;;5072652;28;19938;-89
2022/12/11 11:39:56;;;;;;;;;;;5.70;88.40;;;;;;5072687;28;19937;-89
2022/12/11 11:42:29;;;;;;;;;;;5.60;88.70;;;;;;5067097;28;19952;-89
2022/12/11 11:45:04;;;;;;;;;;;5.70;88.10;;;;;;5052582;28;20301;-89
2022/12/11 11:47:33;;;;;;;;;;;5.70;87.50;;;;;;5052823;28;19940;-89
2022/12/11 11:50:02;;;;;;;;;;;5.60;87.90;;;;;;5052606;28;20399;-89
2022/12/11 11:52:31;;;;;;;;;;;5.60;88.00;;;;;;5058034;28;19953;-89
2022/12/11 11:54:59;;;;;;;;;;;5.60;88.20;;;;;;5072044;28;19963;-89
2022/12/11 11:57:34;;;;;;;;;;;5.50;88.30;;;;;;5072537;28;19979;-88
2022/12/11 12:00:09;;;;;;;;;;;5.50;88.60;;;;;;5072496;28;19978;-89
2022/12/11 12:02:35;;;;;;;;;;;5.50;88.90;;;;;;5065610;28;20048;-89
2022/12/11 12:05:02;;;;;;;;;;;5.50;89.10;;;;;;5052342;28;19947;-89
2022/12/11 12:07:45;;;;;;;;;;;5.50;89.10;;;;;;5052415;28;19947;-89
2022/12/11 12:10:14;;;;;;;;;;;5.50;88.90;;;;;;5052433;28;19944;-89
2022/12/11 12:12:40;;;;;;;;;;;5.40;88.80;;;;;;5062745;28;19947;-89
2022/12/11 12:15:06;;;;;;;;;;;5.40;88.70;;;;;;5075819;28;19966;-89
2022/12/11 12:17:40;;;;;;;;;;;5.40;88.10;;;;;;5075920;28;19954;-89
2022/12/11 12:20:09;;;;;;;;;;;5.30;88.20;;;;;;5075851;28;19936;-89
2022/12/11 12:22:47;;;;;;;;;;;5.30;88.50;;;;;;5069432;28;19978;-89
2022/12/11 12:25:15;;;;;;;;;;;5.30;88.80;;;;;;5055751;28;19947;-89
2022/12/11 12:27:41;;;;;;;;;;;5.40;88.90;;;;;;5055697;28;19945;-89
2022/12/11 12:30:16;;;;;;;;;;;5.40;88.60;;;;;;5055619;28;19937;-89
2022/12/11 12:32:49;;;;;;;;;;;5.30;88.70;;;;;;5062473;28;19972;-89
2022/12/11 12:35:21;;;;;;;;;;;5.40;88.80;;;;;;5075453;28;19957;-89
2022/12/11 12:38:05;;;;;;;;;;;5.40;88.50;;;;;;5075515;28;19944;-89
2022/12/11 12:40:34;;;;;;;;;;;5.40;88.60;;;;;;5062465;28;19945;-89
2022/12/11 12:43:00;;;;;;;;;;;5.30;88.50;;;;;;5055558;28;19953;-89
2022/12/11 12:45:43;;;;;;;;;;;5.30;88.90;;;;;;5055565;28;19943;-88
2022/12/11 12:48:09;;;;;;;;;;;5.40;88.60;;;;;;5055328;28;19990;-89
2022/12/11 12:50:42;;;;;;;;;;;5.30;88.50;;;;;;5067980;28;19977;-89
2022/12/11 12:53:12;;;;;;;;;;;5.30;88.20;;;;;;5075024;28;19957;-89
2022/12/11 12:55:38;;;;;;;;;;;5.20;88.20;;;;;;5075122;28;19961;-89
2022/12/11 12:58:05;;;;;;;;;;;5.20;88.50;;;;;;5075146;28;19943;-89
2022/12/11 13:00:30;;;;;;;;;;;5.20;88.50;;;;;;5062703;28;20496;-89
2022/12/11 13:02:56;;;;;;;;;;;5.20;88.70;;;;;;5055273;28;20023;-89
2022/12/11 13:05:22;;;;;;;;;;;5.20;88.40;;;;;;5055041;28;20417;-89
2022/12/11 13:07:48;;;;;;;;;;;5.20;88.50;;;;;;5055007;28;19937;-89
2022/12/11 13:10:25;;;;;;;;;;;5.20;88.80;;;;;;5064355;28;19947;-89
2022/12/11 13:12:50;;;;;;;;;;;5.20;88.80;;;;;;5056969;28;19968;-89
2022/12/11 13:15:33;;;;;;;;;;;5.20;88.80;;;;;;5074772;28;20411;-89
2022/12/11 13:18:00;;;;;;;;;;;5.20;88.80;;;;;;5074792;28;19974;-89
2022/12/11 13:20:27;;;;;;;;;;;5.20;89.30;;;;;;5063607;28;19963;-89
2022/12/11 13:23:08;;;;;;;;;;;5.20;89.50;;;;;;5053955;28;19946;-89
2022/12/11 13:25:57;;;;;;;;;;;5.20;89.30;;;;;;5054683;28;19939;-89
2022/12/11 13:28:24;;;;;;;;;;;5.20;89.50;;;;;;5054816;28;19950;-89
2022/12/11 13:31:19;;;;;;;;;;;5.30;89.50;;;;;;5068289;28;19958;-89
2022/12/11 13:33:47;;;;;;;;;;;5.30;89.30;;;;;;5060965;28;19997;-89
2022/12/11 13:36:12;;;;;;;;;;;5.30;89.40;;;;;;5074323;28;20452;-89
2022/12/11 13:38:44;;;;;;;;;;;5.30;89.50;;;;;;5074319;28;19938;-88
2022/12/11 13:41:11;;;;;;;;;;;5.30;89.30;;;;;;5057441;28;19943;-89
2022/12/11 13:43:37;;;;;;;;;;;5.30;89.30;;;;;;5054247;28;19940;-89
2022/12/11 13:46:05;;;;;;;;;;;5.20;89.30;;;;;;5054232;28;19965;-89
2022/12/11 13:48:33;;;;;;;;;;;5.30;89.40;;;;;;5054124;28;19948;-89
2022/12/11 13:50:59;;;;;;;;;;;5.20;89.20;;;;;;5068941;28;19951;-89
2022/12/11 13:53:25;;;;;;;;;;;5.20;89.40;;;;;;5073829;28;20007;-89
2022/12/11 13:56:01;;;;;;;;;;;5.20;89.40;;;;;;5073924;28;20421;-89
2022/12/11 13:58:27;;;;;;;;;;;5.20;89.40;;;;;;5073813;28;19947;-89
2022/12/11 14:00:58;;;;;;;;;;;5.10;89.20;;;;;;5059930;28;20396;-89
2022/12/11 14:03:23;;;;;;;;;;;5.10;89.20;;;;;;5053946;28;20025;-89
2022/12/11 14:05:49;;;;;;;;;;;5.00;89.30;;;;;;5053731;28;20053;-89
2022/12/11 14:08:25;;;;;;;;;;;4.90;89.50;;;;;;5053742;28;19940;-89
2022/12/11 14:10:53;;;;;;;;;;;4.90;89.80;;;;;;5066567;28;20395;-89
2022/12/11 14:13:22;;;;;;;;;;;4.70;90.30;;;;;;5073357;28;19951;-89
2022/12/11 14:15:47;;;;;;;;;;;4.70;91.20;;;;;;5073584;28;20421;-89
2022/12/11 14:18:25;;;;;;;;;;;4.70;91.40;;;;;;5073551;28;19983;-89
2022/12/11 14:20:57;;;;;;;;;;;4.80;91.50;;;;;;5060234;28;19971;-89
2022/12/11 14:23:30;;;;;;;;;;;4.90;91.10;;;;;;5053527;28;20292;-89
2022/12/11 14:26:00;;;;;;;;;;;4.90;90.80;;;;;;5053475;28;20424;-89
2022/12/11 14:28:26;;;;;;;;;;;4.90;90.50;;;;;;5070048;28;19948;-89
2022/12/11 14:30:54;;;;;;;;;;;4.80;90.50;;;;;;5073652;28;20041;-89
2022/12/11 14:33:21;;;;;;;;;;;4.70;90.50;;;;;;5073575;28;19940;-89
2022/12/11 14:35:47;;;;;;;;;;;4.70;90.70;;;;;;5073273;28;19965;-89
2022/12/11 14:38:18;;;;;;;;;;;4.60;90.70;;;;;;5058141;28;20008;-89
2022/12/11 14:40:45;;;;;;;;;;;4.50;91.00;;;;;;5053236;28;20402;-89
2022/12/11 14:43:14;;;;;;;;;;;4.50;91.00;;;;;;5061231;28;19948;-89
2022/12/11 14:45:41;;;;;;;;;;;4.50;90.80;;;;;;5053069;28;20178;-88
2022/12/11 14:48:10;;;;;;;;;;;4.40;90.80;;;;;;5053182;28;20414;-89